Terminal Aerodrome Forecast
Issued by NWS Charleston, WV

Current Version | Previous Version | Text Only | Print | Product List | Glossary Off
Versions: 1 2 3 4 5 6 7 8 9 10 11 12 13 14 15 16 17 18 19 20 21 22 23 24 25 26 27 28 29 30 31 32

000
FTUS41 KRLX 191900 AAA
TAFCRW
TAF AMD
KCRW 191945Z 1920/2018 16007KT P6SM SCT020 BKN045
      TEMPO 1920/1922 -SHRA BKN020
     FM200400 00000KT 5SM BR OVC060
     FM201200 00000KT P6SM BKN045=

USA.gov is the U.S. government's official web portal to all federal, state and local government web resources and services.